Time;durP1;ratioP1;P1;durP2;ratioP2;P2;SDS_P1;SDS_P2;PMS_P1;PMS_P2;Temp;Humidity;BMP_temperature;BMP_pressure;BME280_temperature;BME280_humidity;BME280_pressure;Samples;Min_cycle;Max_cycle;Signal;HPM_P1;HPM_P2
2020/12/15 00:01:29;;;;;;;3.10;2.70;;;9.80;99.90;;;;;;5014788;28;20179;-71
2020/12/15 00:03:54;;;;;;;3.30;2.47;;;9.80;99.90;;;;;;5014941;28;20221;-71
2020/12/15 00:06:20;;;;;;;2.90;2.70;;;9.70;99.90;;;;;;5014761;28;20186;-72
2020/12/15 00:08:45;;;;;;;2.90;2.70;;;9.70;99.90;;;;;;5014124;28;20621;-72
2020/12/15 00:11:18;;;;;;;4.10;3.20;;;9.60;99.90;;;;;;5014275;28;20185;-72
2020/12/15 00:13:47;;;;;;;2.73;2.50;;;9.60;99.90;;;;;;5014402;28;20195;-72
2020/12/15 00:16:17;;;;;;;2.80;2.47;;;9.60;99.90;;;;;;5013977;28;20482;-72
2020/12/15 00:18:43;;;;;;;2.87;2.67;;;9.60;99.90;;;;;;5005807;28;20452;-72
2020/12/15 00:21:08;;;;;;;3.43;2.83;;;9.60;99.90;;;;;;5014307;28;20923;-72
2020/12/15 00:23:34;;;;;;;4.37;2.83;;;9.60;99.90;;;;;;5013963;28;20193;-72
2020/12/15 00:25:59;;;;;;;4.30;2.90;;;9.60;99.90;;;;;;5013938;28;20668;-72
2020/12/15 00:28:25;;;;;;;3.53;2.80;;;9.60;99.90;;;;;;5012608;28;20252;-72
2020/12/15 00:30:51;;;;;;;4.03;3.10;;;9.60;99.90;;;;;;5013587;28;20598;-72
2020/12/15 00:33:17;;;;;;;3.10;2.67;;;9.60;99.90;;;;;;5014040;28;20178;-72
2020/12/15 00:35:42;;;;;;;4.13;2.50;;;9.60;99.90;;;;;;5013699;28;20483;-72
2020/12/15 00:38:08;;;;;;;3.30;3.00;;;9.60;99.90;;;;;;5013673;28;20274;-72
2020/12/15 00:40:33;;;;;;;2.70;2.50;;;9.60;99.90;;;;;;5013331;28;20416;-72
2020/12/15 00:42:59;;;;;;;3.57;3.30;;;9.60;99.90;;;;;;5012185;28;20298;-72
2020/12/15 00:45:24;;;;;;;3.53;2.47;;;9.50;99.90;;;;;;5013945;28;20179;-70
2020/12/15 00:47:51;;;;;;;2.70;2.50;;;9.50;99.90;;;;;;5013263;28;20198;-73
2020/12/15 00:50:17;;;;;;;3.90;2.80;;;9.50;99.90;;;;;;5013425;28;20226;-73
2020/12/15 00:52:42;;;;;;;2.50;2.30;;;9.50;99.90;;;;;;5013127;28;20450;-71
2020/12/15 00:55:08;;;;;;;3.20;2.73;;;9.50;99.90;;;;;;5013404;28;20181;-71
2020/12/15 00:57:33;;;;;;;3.57;3.27;;;9.40;99.90;;;;;;5012689;28;20221;-71
2020/12/15 00:59:59;;;;;;;3.03;2.73;;;9.40;99.90;;;;;;5013344;28;20202;-71
2020/12/15 01:02:25;;;;;;;2.93;2.73;;;9.40;99.90;;;;;;5013210;28;20271;-71
2020/12/15 01:04:50;;;;;;;3.23;2.90;;;9.40;99.90;;;;;;5013436;28;20428;-71
2020/12/15 01:07:16;;;;;;;3.00;2.80;;;9.40;99.90;;;;;;5013316;28;20629;-71
2020/12/15 01:09:41;;;;;;;3.20;2.90;;;9.40;99.90;;;;;;5013745;28;20274;-71
2020/12/15 01:12:11;;;;;;;3.70;2.77;;;9.40;99.90;;;;;;5012546;28;20179;-72
2020/12/15 01:14:37;;;;;;;3.23;2.93;;;9.30;99.90;;;;;;5013387;28;20549;-72
2020/12/15 01:17:06;;;;;;;2.97;2.77;;;9.30;99.90;;;;;;5013054;28;20429;-71
2020/12/15 01:19:31;;;;;;;6.00;3.03;;;9.30;99.90;;;;;;5013637;28;20198;-71
2020/12/15 01:21:57;;;;;;;2.90;2.70;;;9.30;99.90;;;;;;5013082;28;20432;-72
2020/12/15 01:24:25;;;;;;;3.73;3.43;;;9.20;99.90;;;;;;5013011;28;20230;-72
2020/12/15 01:26:51;;;;;;;3.57;3.27;;;9.20;99.90;;;;;;5012750;28;20544;-71
2020/12/15 01:29:16;;;;;;;3.00;2.70;;;9.20;99.90;;;;;;5012523;28;20465;-71
2020/12/15 01:31:42;;;;;;;4.00;2.80;;;9.20;99.90;;;;;;5012940;28;20176;-71
2020/12/15 01:34:07;;;;;;;4.03;2.90;;;9.20;99.90;;;;;;5012808;28;20183;-71
2020/12/15 01:36:33;;;;;;;3.00;2.80;;;9.20;99.90;;;;;;5012673;28;20228;-71
2020/12/15 01:38:59;;;;;;;4.13;2.87;;;9.20;99.90;;;;;;5012464;28;20206;-71
2020/12/15 01:41:24;;;;;;;2.73;2.53;;;9.10;99.90;;;;;;5012622;28;20177;-72
2020/12/15 01:43:54;;;;;;;3.07;2.77;;;9.10;99.90;;;;;;5012873;28;20411;-72
2020/12/15 01:46:20;;;;;;;3.30;3.00;;;9.10;99.90;;;;;;5012410;28;20298;-72
2020/12/15 01:48:46;;;;;;;4.60;3.73;;;9.10;99.90;;;;;;5013079;28;20481;-71
2020/12/15 01:51:13;;;;;;;3.40;3.03;;;9.10;99.90;;;;;;5013252;28;20194;-72
2020/12/15 01:53:38;;;;;;;3.37;3.07;;;9.10;99.90;;;;;;5012754;28;20429;-72
2020/12/15 01:56:04;;;;;;;3.20;2.90;;;9.10;99.90;;;;;;5012768;28;20429;-72
2020/12/15 01:58:29;;;;;;;3.67;3.37;;;9.10;99.90;;;;;;5012294;28;20191;-72
2020/12/15 02:00:55;;;;;;;3.90;3.20;;;9.10;99.90;;;;;;5012609;28;20243;-72
2020/12/15 02:03:20;;;;;;;3.70;3.40;;;9.10;99.90;;;;;;5012508;28;20210;-72
2020/12/15 02:05:46;;;;;;;3.53;3.13;;;9.00;99.90;;;;;;5011532;28;20587;-72
2020/12/15 02:08:12;;;;;;;4.50;3.33;;;9.00;99.90;;;;;;5008554;28;20173;-72
2020/12/15 02:10:37;;;;;;;5.37;3.40;;;9.00;99.90;;;;;;5012292;28;20192;-72
2020/12/15 02:13:03;;;;;;;3.40;3.10;;;9.00;99.90;;;;;;5012215;28;20180;-72
2020/12/15 02:15:29;;;;;;;4.00;3.70;;;9.00;99.90;;;;;;5011551;28;20201;-72
2020/12/15 02:17:54;;;;;;;3.73;3.30;;;8.90;99.90;;;;;;5012365;28;20479;-72
2020/12/15 02:20:20;;;;;;;3.37;3.07;;;8.90;99.90;;;;;;5012039;28;20266;-72
2020/12/15 02:22:45;;;;;;;5.20;4.30;;;8.90;99.90;;;;;;5012067;28;20682;-72
2020/12/15 02:25:11;;;;;;;3.70;3.40;;;8.90;99.90;;;;;;5012413;28;20178;-72
2020/12/15 02:27:37;;;;;;;3.50;3.20;;;8.90;99.90;;;;;;5013821;28;20191;-71
2020/12/15 02:30:06;;;;;;;4.10;3.70;;;8.80;99.90;;;;;;5012932;28;20199;-71
2020/12/15 02:32:33;;;;;;;3.87;3.57;;;8.80;99.90;;;;;;5017535;28;20317;-71
2020/12/15 02:34:58;;;;;;;3.27;3.07;;;8.90;99.90;;;;;;5026501;28;20423;-71
2020/12/15 02:37:24;;;;;;;4.03;3.63;;;8.80;99.90;;;;;;5016970;28;20793;-71
2020/12/15 02:39:50;;;;;;;5.03;3.77;;;8.90;99.90;;;;;;5021874;28;20235;-71
2020/12/15 02:42:15;;;;;;;4.07;3.77;;;8.90;99.90;;;;;;5027199;28;20211;-71
2020/12/15 02:44:41;;;;;;;4.53;4.07;;;8.90;99.90;;;;;;5022077;28;20420;-71
2020/12/15 02:47:07;;;;;;;4.87;4.20;;;8.90;99.90;;;;;;5012035;28;20191;-71
2020/12/15 02:49:32;;;;;;;5.50;4.00;;;8.90;99.90;;;;;;5012149;28;20681;-71
2020/12/15 02:51:58;;;;;;;5.60;3.93;;;8.90;99.90;;;;;;5012194;28;20254;-71
2020/12/15 02:57:49;;;;;;;4.63;4.00;;;8.90;99.90;;;;;;5014146;28;20465;-71
2020/12/15 03:00:17;;;;;;;4.73;4.20;;;8.90;99.90;;;;;;5015682;28;20430;-71
2020/12/15 03:02:42;;;;;;;4.40;4.00;;;8.90;99.90;;;;;;5015639;28;20453;-71
2020/12/15 03:05:08;;;;;;;4.87;4.47;;;8.80;99.90;;;;;;5015771;28;20444;-71
2020/12/15 03:07:34;;;;;;;5.40;4.73;;;8.80;99.90;;;;;;5014952;28;20185;-71
2020/12/15 03:10:00;;;;;;;4.70;4.30;;;8.90;99.90;;;;;;5015496;28;20200;-72
2020/12/15 03:12:28;;;;;;;5.07;4.33;;;8.90;99.90;;;;;;5015822;28;20423;-71
2020/12/15 03:14:54;;;;;;;5.30;4.53;;;9.00;99.90;;;;;;5015663;28;20428;-71
2020/12/15 03:17:19;;;;;;;5.10;4.60;;;8.90;99.90;;;;;;5015217;28;20492;-71
2020/12/15 03:19:45;;;;;;;4.90;4.47;;;8.90;99.90;;;;;;5015273;28;21046;-71
2020/12/15 03:22:14;;;;;;;4.73;4.33;;;8.90;99.90;;;;;;5014408;28;20540;-71
2020/12/15 03:24:40;;;;;;;4.60;4.20;;;8.90;99.90;;;;;;5015546;28;20184;-71
2020/12/15 03:27:06;;;;;;;5.17;4.67;;;8.80;99.90;;;;;;5015145;28;20941;-72
2020/12/15 03:29:31;;;;;;;4.67;4.20;;;8.80;99.90;;;;;;5015268;28;20434;-72
2020/12/15 03:31:57;;;;;;;9.00;5.30;;;8.70;99.90;;;;;;5014878;28;20193;-72
2020/12/15 03:34:23;;;;;;;4.70;4.30;;;8.70;99.90;;;;;;5015491;28;20526;-72
2020/12/15 03:36:48;;;;;;;5.67;5.17;;;8.70;99.90;;;;;;5015511;28;20207;-72
2020/12/15 03:39:14;;;;;;;5.30;4.83;;;8.70;99.90;;;;;;5014828;28;20195;-72
2020/12/15 03:41:39;;;;;;;5.00;4.50;;;8.60;99.90;;;;;;5014132;28;20591;-72
2020/12/15 03:44:05;;;;;;;5.13;4.63;;;8.70;99.90;;;;;;5015172;28;20587;-72
2020/12/15 03:46:31;;;;;;;4.77;4.17;;;8.70;99.90;;;;;;5015151;28;20665;-72
2020/12/15 03:48:56;;;;;;;6.30;5.10;;;8.60;99.90;;;;;;5014443;28;20377;-72
2020/12/15 03:51:22;;;;;;;5.63;5.10;;;8.60;99.90;;;;;;5015081;28;20235;-72
2020/12/15 03:53:47;;;;;;;6.00;5.40;;;8.50;99.90;;;;;;5015265;28;20226;-72
2020/12/15 03:56:13;;;;;;;6.23;5.07;;;8.50;99.90;;;;;;5014818;28;20184;-72
2020/12/15 03:58:38;;;;;;;7.23;5.63;;;8.50;99.90;;;;;;5014859;28;20195;-72
2020/12/15 04:01:04;;;;;;;5.83;5.03;;;8.50;99.90;;;;;;5014660;28;20190;-72
2020/12/15 04:03:30;;;;;;;5.10;4.53;;;8.50;99.90;;;;;;5006443;28;20287;-72
2020/12/15 04:05:57;;;;;;;5.90;5.40;;;8.50;99.90;;;;;;5014848;28;20505;-72
2020/12/15 04:08:23;;;;;;;6.60;5.30;;;8.60;99.90;;;;;;5014039;28;20175;-72
2020/12/15 04:10:52;;;;;;;6.90;4.87;;;8.50;99.90;;;;;;5014448;28;20426;-72
2020/12/15 04:13:18;;;;;;;6.00;5.23;;;8.50;99.90;;;;;;5014495;28;20192;-72
2020/12/15 04:15:44;;;;;;;6.00;5.47;;;8.50;99.90;;;;;;5014537;28;20503;-72
2020/12/15 04:18:09;;;;;;;6.13;5.60;;;8.50;99.90;;;;;;5015589;28;20519;-72
2020/12/15 04:20:35;;;;;;;6.53;5.83;;;8.40;99.90;;;;;;5014382;28;20449;-72
2020/12/15 04:23:00;;;;;;;6.60;5.90;;;8.50;99.90;;;;;;5014582;28;20195;-71
2020/12/15 04:25:26;;;;;;;5.80;5.30;;;8.50;99.90;;;;;;5014919;28;20185;-71
2020/12/15 04:27:52;;;;;;;6.10;5.40;;;8.40;99.90;;;;;;5014199;28;20175;-71
2020/12/15 04:30:17;;;;;;;6.77;6.10;;;8.40;99.90;;;;;;5014704;28;20251;-71
2020/12/15 04:32:43;;;;;;;6.47;5.50;;;8.50;99.90;;;;;;5013839;28;20198;-72
2020/12/15 04:35:08;;;;;;;6.20;5.63;;;8.50;99.90;;;;;;5014212;28;20171;-72
2020/12/15 04:37:40;;;;;;;7.00;6.30;;;8.50;99.90;;;;;;5013618;28;20243;-71
2020/12/15 04:40:06;;;;;;;8.53;6.17;;;8.50;99.90;;;;;;5013907;28;20197;-72
2020/12/15 04:42:34;;;;;;;9.73;6.30;;;8.40;99.90;;;;;;5014127;28;20458;-72
2020/12/15 04:45:00;;;;;;;6.63;6.03;;;8.40;99.90;;;;;;5013699;28;20459;-72
2020/12/15 04:47:34;;;;;;;6.87;6.27;;;8.40;99.90;;;;;;5013366;28;20441;-72
2020/12/15 04:49:59;;;;;;;5.87;5.37;;;8.40;99.90;;;;;;5013929;28;20226;-70
2020/12/15 04:52:37;;;;;;;7.07;6.37;;;8.40;99.90;;;;;;5013327;28;20415;-70
2020/12/15 04:55:02;;;;;;;7.43;6.73;;;8.40;99.90;;;;;;5013948;28;20192;-71
2020/12/15 04:57:28;;;;;;;7.83;6.73;;;8.50;99.90;;;;;;5013568;28;20419;-70
2020/12/15 04:59:54;;;;;;;7.10;6.40;;;8.50;99.90;;;;;;5013288;28;20224;-72
2020/12/15 05:02:21;;;;;;;7.13;6.23;;;8.50;99.90;;;;;;5013600;28;20195;-71
2020/12/15 05:04:50;;;;;;;6.73;6.07;;;8.50;99.90;;;;;;5013904;28;20421;-71
2020/12/15 05:07:15;;;;;;;6.60;6.00;;;8.40;99.90;;;;;;5005423;28;20523;-71
2020/12/15 05:09:41;;;;;;;7.90;7.10;;;8.40;99.90;;;;;;5013400;28;20522;-71
2020/12/15 05:12:06;;;;;;;7.53;6.07;;;8.40;99.90;;;;;;5013750;28;20179;-72
2020/12/15 05:14:33;;;;;;;9.40;7.17;;;8.40;99.90;;;;;;5012848;28;20177;-71
2020/12/15 05:16:58;;;;;;;6.80;6.20;;;8.50;99.90;;;;;;5010075;28;20175;-72
2020/12/15 05:19:24;;;;;;;9.70;6.60;;;8.50;99.90;;;;;;5007679;28;20551;-71
2020/12/15 05:22:00;;;;;;;7.97;7.17;;;8.50;99.90;;;;;;5013418;28;20183;-71
2020/12/15 05:24:28;;;;;;;8.33;7.53;;;8.50;99.90;;;;;;5013468;28;20189;-72
2020/12/15 05:27:01;;;;;;;7.80;7.00;;;8.50;99.90;;;;;;5013408;28;20434;-72
2020/12/15 05:29:27;;;;;;;7.23;6.50;;;8.50;99.90;;;;;;5013407;28;20431;-72
2020/12/15 05:31:54;;;;;;;8.77;7.87;;;8.50;99.90;;;;;;5013317;28;20434;-72
2020/12/15 05:34:22;;;;;;;8.07;7.30;;;8.40;99.90;;;;;;5013039;28;20426;-71
2020/12/15 05:36:53;;;;;;;8.03;7.20;;;8.50;99.90;;;;;;5007444;28;20454;-72
2020/12/15 05:39:19;;;;;;;9.17;7.70;;;8.40;99.90;;;;;;5014614;28;20491;-72
2020/12/15 05:41:45;;;;;;;7.93;7.13;;;8.40;99.90;;;;;;5014838;28;20906;-72
2020/12/15 05:44:24;;;;;;;7.90;7.10;;;8.50;99.90;;;;;;5013959;28;20682;-71
2020/12/15 05:46:51;;;;;;;8.70;7.80;;;8.50;99.90;;;;;;5008386;28;20500;-71
2020/12/15 05:49:29;;;;;;;7.13;6.40;;;8.40;99.90;;;;;;5013922;28;20443;-71
2020/12/15 05:51:55;;;;;;;8.67;7.80;;;8.50;99.90;;;;;;5012989;28;21000;-71
2020/12/15 05:54:21;;;;;;;10.00;8.00;;;8.50;99.90;;;;;;5012119;28;21038;-71
2020/12/15 05:56:58;;;;;;;9.50;8.40;;;8.50;99.90;;;;;;5010737;28;20483;-72
2020/12/15 05:59:24;;;;;;;8.00;7.20;;;8.60;99.90;;;;;;5010672;28;20446;-72
2020/12/15 06:01:52;;;;;;;10.37;7.90;;;8.60;99.90;;;;;;5014943;28;20423;-72
2020/12/15 06:04:18;;;;;;;8.70;7.90;;;8.60;99.90;;;;;;5019905;28;20443;-72
2020/12/15 06:06:45;;;;;;;8.60;7.80;;;8.60;99.90;;;;;;5018705;28;20411;-72
2020/12/15 06:09:16;;;;;;;8.00;7.10;;;8.60;99.90;;;;;;5018417;28;20437;-72
2020/12/15 06:11:44;;;;;;;8.30;7.50;;;8.60;99.90;;;;;;5022412;28;20501;-71
2020/12/15 06:14:10;;;;;;;8.27;7.30;;;8.70;99.90;;;;;;5023780;28;20425;-72
2020/12/15 06:16:38;;;;;;;7.63;6.83;;;8.70;99.90;;;;;;5012088;28;20509;-72
2020/12/15 06:19:06;;;;;;;8.67;7.77;;;8.80;99.90;;;;;;5012206;28;20430;-71
2020/12/15 06:21:33;;;;;;;7.43;6.80;;;8.80;99.90;;;;;;5012568;28;20433;-72
2020/12/15 06:24:03;;;;;;;8.47;7.70;;;8.80;99.90;;;;;;5010306;28;20457;-71
2020/12/15 06:26:30;;;;;;;8.77;7.87;;;8.80;99.90;;;;;;5012739;28;20414;-72
2020/12/15 06:29:06;;;;;;;8.43;7.57;;;8.80;99.90;;;;;;5015474;28;20438;-71
2020/12/15 06:31:33;;;;;;;8.70;7.47;;;8.80;99.90;;;;;;5016157;28;20536;-72
2020/12/15 06:34:00;;;;;;;9.43;7.30;;;8.90;99.90;;;;;;5015833;28;20423;-72
2020/12/15 06:36:27;;;;;;;7.97;7.17;;;9.00;99.90;;;;;;5015836;28;20426;-72
2020/12/15 06:38:53;;;;;;;8.77;6.93;;;9.00;99.90;;;;;;5015552;28;20448;-71
2020/12/15 06:41:21;;;;;;;8.27;7.47;;;9.00;99.90;;;;;;5015816;28;20421;-71
2020/12/15 06:43:46;;;;;;;8.60;7.70;;;9.00;99.90;;;;;;5015686;28;20476;-72
2020/12/15 06:46:12;;;;;;;8.83;7.83;;;9.00;99.90;;;;;;5015412;28;20416;-72
2020/12/15 06:48:38;;;;;;;7.93;7.23;;;9.10;99.90;;;;;;5015694;28;20200;-71
2020/12/15 06:51:04;;;;;;;7.50;6.80;;;9.10;99.90;;;;;;5019446;28;20188;-71
2020/12/15 06:53:30;;;;;;;10.30;7.90;;;9.10;99.90;;;;;;5017605;28;20431;-71
2020/12/15 06:56:04;;;;;;;10.93;7.77;;;9.10;99.90;;;;;;5015950;28;20419;-72
2020/12/15 06:58:30;;;;;;;9.23;8.27;;;9.10;99.90;;;;;;5014866;28;20191;-72
2020/12/15 07:00:58;;;;;;;8.50;7.70;;;9.10;99.90;;;;;;5014474;28;20424;-70
2020/12/15 07:03:39;;;;;;;9.20;7.57;;;9.10;99.90;;;;;;5015985;28;20453;-72
2020/12/15 07:06:15;;;;;;;10.40;8.60;;;9.10;99.90;;;;;;5016006;28;20445;-71
2020/12/15 07:08:42;;;;;;;10.67;9.03;;;9.10;99.90;;;;;;5013723;28;20458;-72
2020/12/15 07:11:08;;;;;;;8.70;7.80;;;9.10;99.90;;;;;;5014369;28;20430;-72
2020/12/15 07:13:34;;;;;;;9.50;8.57;;;9.10;99.90;;;;;;5016478;28;20484;-72
2020/12/15 07:16:00;;;;;;;9.97;8.47;;;9.10;99.90;;;;;;5014830;28;20422;-72
2020/12/15 07:18:25;;;;;;;8.20;7.50;;;9.10;99.90;;;;;;5014012;28;20430;-71
2020/12/15 07:20:51;;;;;;;8.43;7.53;;;9.10;99.90;;;;;;5015974;28;20174;-71
2020/12/15 07:23:17;;;;;;;10.00;8.50;;;9.10;99.90;;;;;;5014541;28;20213;-71
2020/12/15 07:25:47;;;;;;;10.03;8.37;;;9.10;99.90;;;;;;5014842;28;20175;-71
2020/12/15 07:28:12;;;;;;;8.37;7.47;;;9.10;99.90;;;;;;5014973;28;20447;-71
2020/12/15 07:30:38;;;;;;;8.27;7.47;;;9.10;99.90;;;;;;5015323;28;20422;-72
2020/12/15 07:33:05;;;;;;;8.80;6.60;;;9.10;99.90;;;;;;5016282;28;20677;-71
2020/12/15 07:35:31;;;;;;;12.40;9.20;;;9.10;99.90;;;;;;5015619;28;20491;-72
2020/12/15 07:37:58;;;;;;;8.10;7.23;;;9.20;99.90;;;;;;5014748;28;20419;-71
2020/12/15 07:40:31;;;;;;;8.67;7.77;;;9.20;99.90;;;;;;5009635;28;20532;-72
2020/12/15 07:42:59;;;;;;;8.10;7.30;;;9.20;99.90;;;;;;5015095;28;20450;-71
2020/12/15 07:45:28;;;;;;;8.00;7.20;;;9.20;99.90;;;;;;5014746;28;20441;-71
2020/12/15 07:47:55;;;;;;;8.77;7.87;;;9.30;99.90;;;;;;5015014;28;20434;-70
2020/12/15 07:50:26;;;;;;;12.43;10.30;;;9.30;99.90;;;;;;5013612;28;20478;-71
2020/12/15 07:52:52;;;;;;;14.57;12.47;;;9.40;99.90;;;;;;5014903;28;20417;-72
2020/12/15 07:55:18;;;;;;;9.33;8.53;;;9.40;99.90;;;;;;5015013;28;20543;-71
2020/12/15 07:57:44;;;;;;;12.77;11.30;;;9.40;99.90;;;;;;5014264;28;21772;-71
2020/12/15 08:00:15;;;;;;;16.00;14.30;;;9.50;99.90;;;;;;5012371;28;20217;-72
2020/12/15 08:02:42;;;;;;;20.30;15.67;;;9.50;99.90;;;;;;5013521;28;20198;-72
2020/12/15 08:05:16;;;;;;;19.20;16.37;;;9.60;99.90;;;;;;5014887;28;20465;-71
2020/12/15 08:07:51;;;;;;;21.53;18.00;;;9.60;99.90;;;;;;5006783;28;20421;-71
2020/12/15 08:10:28;;;;;;;18.07;16.17;;;9.70;99.90;;;;;;5006737;28;20518;-72
2020/12/15 08:13:02;;;;;;;18.30;15.90;;;9.70;99.90;;;;;;5010927;28;20787;-72
2020/12/15 08:15:38;;;;;;;25.03;21.20;;;9.70;99.90;;;;;;5014245;28;20959;-71
2020/12/15 08:18:08;;;;;;;23.40;20.63;;;9.70;99.90;;;;;;5015249;28;20420;-71
2020/12/15 08:20:38;;;;;;;19.30;15.70;;;9.80;99.90;;;;;;5015137;28;20512;-72
2020/12/15 08:23:07;;;;;;;17.70;14.07;;;9.80;99.90;;;;;;5011543;28;20842;-73
2020/12/15 08:25:33;;;;;;;16.20;14.50;;;9.80;99.90;;;;;;5010519;28;20441;-72
2020/12/15 08:28:13;;;;;;;19.17;15.70;;;9.80;99.90;;;;;;5012531;28;20448;-71
2020/12/15 08:30:40;;;;;;;15.47;13.43;;;9.80;99.90;;;;;;5012933;28;20824;-72
2020/12/15 08:33:06;;;;;;;12.73;11.43;;;9.90;99.90;;;;;;5011996;28;20469;-71
2020/12/15 08:35:32;;;;;;;15.23;13.57;;;9.90;99.90;;;;;;5012681;28;20442;-71
2020/12/15 08:38:00;;;;;;;16.37;14.57;;;9.90;99.90;;;;;;5012685;28;20418;-72
2020/12/15 08:40:27;;;;;;;15.00;13.47;;;9.90;99.90;;;;;;5013077;28;20553;-71
2020/12/15 08:42:59;;;;;;;15.13;12.87;;;9.90;99.90;;;;;;5007207;28;20453;-71
2020/12/15 08:45:26;;;;;;;16.33;14.57;;;9.90;99.90;;;;;;5003495;28;20476;-71
2020/12/15 08:47:56;;;;;;;14.80;13.30;;;9.90;99.90;;;;;;4999865;28;20556;-71
2020/12/15 08:50:31;;;;;;;14.37;12.87;;;9.90;99.90;;;;;;5009542;28;20482;-72
2020/12/15 08:53:07;;;;;;;13.90;12.00;;;10.00;99.90;;;;;;5012723;28;20445;-71
2020/12/15 08:55:35;;;;;;;9.23;8.33;;;10.00;99.90;;;;;;5014598;28;20466;-72
2020/12/15 08:58:03;;;;;;;7.50;6.80;;;10.00;99.90;;;;;;5014603;28;20454;-72
2020/12/15 09:00:33;;;;;;;7.53;6.93;;;10.00;99.90;;;;;;5013023;28;21038;-72
2020/12/15 09:03:13;;;;;;;7.90;7.20;;;10.00;99.90;;;;;;5014422;28;20465;-72
2020/12/15 09:05:47;;;;;;;7.90;7.10;;;9.90;99.90;;;;;;5013860;28;20440;-72
2020/12/15 09:08:12;;;;;;;7.33;6.63;;;9.90;99.90;;;;;;5011834;28;20454;-72
2020/12/15 09:10:38;;;;;;;6.63;5.93;;;9.90;99.90;;;;;;5014384;28;20449;-72
2020/12/15 09:13:06;;;;;;;7.10;6.50;;;9.80;99.90;;;;;;5014244;28;20183;-73
2020/12/15 09:15:32;;;;;;;7.40;6.70;;;9.80;99.90;;;;;;5011475;28;20175;-73
2020/12/15 09:17:58;;;;;;;6.90;6.30;;;9.80;99.90;;;;;;5012076;28;20508;-73
2020/12/15 09:20:26;;;;;;;8.30;7.50;;;9.80;99.90;;;;;;5014543;28;20191;-73
2020/12/15 09:22:54;;;;;;;7.77;7.07;;;9.80;99.90;;;;;;5012480;28;20225;-72
2020/12/15 09:25:20;;;;;;;7.40;6.30;;;9.90;99.90;;;;;;5009314;28;20429;-72
2020/12/15 09:27:47;;;;;;;7.10;6.40;;;9.90;99.90;;;;;;5004094;28;20449;-73
2020/12/15 09:30:14;;;;;;;7.30;6.63;;;9.90;99.90;;;;;;4990482;28;20483;-72
2020/12/15 09:32:41;;;;;;;7.20;6.53;;;9.90;99.90;;;;;;5011644;28;20876;-72
2020/12/15 09:35:09;;;;;;;6.90;6.20;;;9.90;99.90;;;;;;5014306;28;20418;-72
2020/12/15 09:37:35;;;;;;;6.10;5.60;;;9.90;99.90;;;;;;5019352;28;20426;-73
2020/12/15 09:40:05;;;;;;;6.23;5.67;;;10.00;99.90;;;;;;5025107;28;20453;-72
2020/12/15 09:42:32;;;;;;;6.37;5.77;;;10.00;99.90;;;;;;5021102;28;20460;-72
2020/12/15 09:44:58;;;;;;;5.90;5.40;;;10.00;99.90;;;;;;4999421;28;21032;-72
2020/12/15 09:47:24;;;;;;;7.03;6.40;;;10.10;99.90;;;;;;5023793;28;20466;-71
2020/12/15 09:49:49;;;;;;;5.93;5.43;;;10.10;99.90;;;;;;5027959;28;20458;-72
2020/12/15 09:52:15;;;;;;;5.90;5.40;;;10.00;99.90;;;;;;5026907;28;20187;-72
2020/12/15 09:54:41;;;;;;;6.37;5.77;;;10.10;99.90;;;;;;5014450;28;20674;-72
2020/12/15 09:57:06;;;;;;;5.63;5.13;;;10.10;99.90;;;;;;5012567;28;20595;-71
2020/12/15 09:59:32;;;;;;;6.07;5.50;;;10.10;99.90;;;;;;5012845;28;20198;-72
2020/12/15 10:01:58;;;;;;;5.60;5.07;;;10.10;99.90;;;;;;5015108;28;20202;-73
2020/12/15 10:04:24;;;;;;;6.23;5.70;;;10.10;99.90;;;;;;5017021;28;20201;-72
2020/12/15 10:06:50;;;;;;;6.27;5.67;;;10.10;99.90;;;;;;5016971;28;20772;-71
2020/12/15 10:09:15;;;;;;;6.50;5.10;;;10.10;99.90;;;;;;5015161;28;20277;-72
2020/12/15 10:11:42;;;;;;;5.90;5.40;;;10.10;99.90;;;;;;5015802;28;20571;-72
2020/12/15 10:14:08;;;;;;;6.63;6.03;;;10.10;99.90;;;;;;5016230;28;20176;-73
2020/12/15 10:16:33;;;;;;;6.00;5.40;;;10.20;99.90;;;;;;5016104;28;20418;-72
2020/12/15 10:18:59;;;;;;;5.13;4.70;;;10.20;99.90;;;;;;5004474;28;20234;-71
2020/12/15 10:21:25;;;;;;;5.87;5.33;;;10.20;99.90;;;;;;5011466;28;20614;-74
2020/12/15 10:23:51;;;;;;;4.97;4.57;;;10.20;99.90;;;;;;5013512;28;20231;-72
2020/12/15 10:26:21;;;;;;;6.73;5.50;;;10.20;99.90;;;;;;5014979;28;20176;-71
2020/12/15 10:28:47;;;;;;;6.07;5.50;;;10.20;99.90;;;;;;5016109;28;20437;-71
2020/12/15 10:31:13;;;;;;;5.20;4.80;;;10.20;99.90;;;;;;5015367;28;20425;-72
2020/12/15 10:33:38;;;;;;;5.27;4.77;;;10.30;99.90;;;;;;5015973;28;20443;-72
2020/12/15 10:36:04;;;;;;;5.57;5.07;;;10.20;99.90;;;;;;5015602;28;20186;-72
2020/12/15 10:38:31;;;;;;;6.93;6.10;;;10.30;99.90;;;;;;5015638;28;20495;-72
2020/12/15 10:40:57;;;;;;;6.33;5.73;;;10.20;99.90;;;;;;5016082;28;20415;-72
2020/12/15 10:43:24;;;;;;;7.47;6.40;;;10.20;99.90;;;;;;5015416;28;20480;-72
2020/12/15 10:45:50;;;;;;;6.00;5.40;;;10.20;99.90;;;;;;5014187;28;20452;-71
2020/12/15 10:48:15;;;;;;;6.90;6.20;;;10.20;99.90;;;;;;5013793;28;20440;-71
2020/12/15 10:50:41;;;;;;;5.40;4.90;;;10.20;99.90;;;;;;4999444;28;20184;-72
2020/12/15 10:53:10;;;;;;;5.37;4.93;;;10.20;99.90;;;;;;5009986;28;20179;-71
2020/12/15 10:55:36;;;;;;;6.93;6.20;;;10.20;99.90;;;;;;5015292;28;20205;-72
2020/12/15 10:58:01;;;;;;;6.77;5.97;;;10.20;99.90;;;;;;5015687;28;20418;-72
2020/12/15 11:00:27;;;;;;;6.30;5.70;;;10.20;99.90;;;;;;5014712;28;20468;-72
2020/12/15 11:02:53;;;;;;;5.53;5.03;;;10.20;99.90;;;;;;5002833;28;20293;-72
2020/12/15 11:05:18;;;;;;;6.00;5.50;;;10.30;99.90;;;;;;5003616;28;20176;-72
2020/12/15 11:07:45;;;;;;;5.20;4.80;;;10.20;99.90;;;;;;5003455;28;20188;-72
2020/12/15 11:10:11;;;;;;;6.80;6.17;;;10.20;99.90;;;;;;5008602;28;20200;-71
2020/12/15 11:12:36;;;;;;;6.30;5.70;;;10.20;99.90;;;;;;5004090;28;20971;-71
2020/12/15 11:15:02;;;;;;;6.00;5.50;;;10.20;99.90;;;;;;5005224;28;20190;-72
2020/12/15 11:17:28;;;;;;;6.63;5.93;;;10.20;99.90;;;;;;5011719;28;20255;-72
2020/12/15 11:19:54;;;;;;;6.33;5.73;;;10.20;99.90;;;;;;5012994;28;20488;-72
2020/12/15 11:22:19;;;;;;;5.93;5.43;;;10.20;99.90;;;;;;5015213;28;20659;-72
2020/12/15 11:24:45;;;;;;;7.87;6.00;;;10.20;99.90;;;;;;5006892;28;20639;-72
2020/12/15 11:27:10;;;;;;;7.40;6.67;;;10.20;99.90;;;;;;5014935;28;20172;-72
2020/12/15 11:29:36;;;;;;;6.70;6.10;;;10.20;99.90;;;;;;5015757;28;20202;-72
2020/12/15 11:32:01;;;;;;;6.80;6.20;;;10.20;99.90;;;;;;5008992;28;20223;-71
2020/12/15 11:34:27;;;;;;;7.20;6.50;;;10.10;99.90;;;;;;5015202;28;20182;-72
2020/12/15 11:36:53;;;;;;;6.83;6.20;;;10.20;99.90;;;;;;5013122;28;20190;-71
2020/12/15 11:39:22;;;;;;;7.00;6.20;;;10.20;99.90;;;;;;5005975;28;20226;-72
2020/12/15 11:41:49;;;;;;;6.70;6.10;;;10.20;99.90;;;;;;5012279;28;20514;-71
2020/12/15 11:44:15;;;;;;;7.20;6.10;;;10.30;99.90;;;;;;5013704;28;20483;-72
2020/12/15 11:46:41;;;;;;;7.77;6.97;;;10.20;99.90;;;;;;5015330;28;20437;-72
2020/12/15 11:49:07;;;;;;;7.73;6.87;;;10.20;99.90;;;;;;5014577;28;20464;-70
2020/12/15 11:51:32;;;;;;;8.30;7.40;;;10.20;99.90;;;;;;5015123;28;20187;-72
2020/12/15 11:53:58;;;;;;;9.17;8.13;;;10.10;99.90;;;;;;5014984;28;20959;-71
2020/12/15 11:56:23;;;;;;;8.20;7.07;;;10.10;99.90;;;;;;5015149;28;20219;-71
2020/12/15 11:58:49;;;;;;;7.37;6.67;;;10.10;99.90;;;;;;5010572;28;20280;-71
2020/12/15 12:01:14;;;;;;;12.03;6.90;;;10.00;99.90;;;;;;5011633;28;20716;-71
2020/12/15 12:03:40;;;;;;;8.37;7.50;;;10.00;99.90;;;;;;5014294;28;20221;-72
2020/12/15 12:06:07;;;;;;;9.93;9.03;;;10.00;99.90;;;;;;5013029;28;20203;-72
2020/12/15 12:08:33;;;;;;;9.03;8.10;;;10.00;99.90;;;;;;5014348;28;20703;-72
2020/12/15 12:10:58;;;;;;;10.50;7.97;;;10.00;99.90;;;;;;5013819;28;20422;-72
2020/12/15 12:13:24;;;;;;;7.80;7.10;;;10.10;99.90;;;;;;5014135;28;20235;-72
2020/12/15 12:15:49;;;;;;;9.27;7.67;;;10.10;99.90;;;;;;5013991;28;20245;-72
2020/12/15 12:18:15;;;;;;;7.77;6.70;;;10.10;99.90;;;;;;5011603;28;20230;-72
2020/12/15 12:20:40;;;;;;;7.20;6.27;;;10.10;99.90;;;;;;5014234;28;20181;-72
2020/12/15 12:23:06;;;;;;;6.77;6.17;;;10.20;99.90;;;;;;5015182;28;20207;-72
2020/12/15 12:25:32;;;;;;;6.33;5.73;;;10.20;99.90;;;;;;5015427;28;20592;-71
2020/12/15 12:27:57;;;;;;;7.30;6.60;;;10.20;99.90;;;;;;5015118;28;20580;-72
2020/12/15 12:30:23;;;;;;;8.13;6.47;;;10.20;99.90;;;;;;5015409;28;20199;-71
2020/12/15 12:32:52;;;;;;;7.23;6.23;;;10.30;99.90;;;;;;5011396;28;20552;-71
2020/12/15 12:35:17;;;;;;;6.27;5.70;;;10.30;99.90;;;;;;5014942;28;20839;-71
2020/12/15 12:37:43;;;;;;;8.33;6.40;;;10.30;99.90;;;;;;5014431;28;20418;-71
2020/12/15 12:40:09;;;;;;;8.23;7.10;;;10.30;99.90;;;;;;5011550;28;20201;-73
2020/12/15 12:42:35;;;;;;;6.07;5.50;;;10.30;99.90;;;;;;5006802;28;20210;-72
2020/12/15 12:45:01;;;;;;;5.50;5.00;;;10.40;99.90;;;;;;5002378;28;20449;-72
2020/12/15 12:47:26;;;;;;;6.00;5.40;;;10.40;99.90;;;;;;5011674;28;20431;-72
2020/12/15 12:49:52;;;;;;;5.90;5.40;;;10.40;99.90;;;;;;5017862;28;20214;-72
2020/12/15 12:52:17;;;;;;;6.47;5.87;;;10.40;99.90;;;;;;5011499;28;20171;-73
2020/12/15 12:54:43;;;;;;;6.40;5.80;;;10.40;99.90;;;;;;5011090;28;20175;-72